Time;durP1;ratioP1;P1;durP2;ratioP2;P2;SDS_P1;SDS_P2;PMS_P1;PMS_P2;Temp;Humidity;BMP_temperature;BMP_pressure;BME280_temperature;BME280_humidity;BME280_pressure;Samples;Min_cycle;Max_cycle;Signal;HPM_P1;HPM_P2
2022/04/17 00:00:20;;;;;;;17.03;9.80;;;10.60;63.40;;;;;;4969197;28;20066;-84
2022/04/17 00:02:46;;;;;;;16.57;9.97;;;10.50;63.80;;;;;;4970479;28;20070;-84
2022/04/17 00:05:12;;;;;;;18.53;10.43;;;10.40;63.70;;;;;;4970106;28;20085;-85
2022/04/17 00:07:39;;;;;;;17.87;10.30;;;10.30;63.70;;;;;;4971646;28;20106;-85
2022/04/17 00:10:06;;;;;;;17.53;10.60;;;10.20;64.60;;;;;;4971204;28;20572;-84
2022/04/17 00:12:32;;;;;;;17.17;10.80;;;10.20;65.10;;;;;;4970089;28;20030;-85
2022/04/17 00:15:00;;;;;;;17.47;10.80;;;10.20;65.30;;;;;;4970603;28;20110;-85
2022/04/17 00:17:26;;;;;;;20.13;10.87;;;10.10;65.40;;;;;;4971300;28;20031;-84
2022/04/17 00:19:51;;;;;;;18.53;11.00;;;10.00;65.60;;;;;;4969730;28;20078;-85
2022/04/17 00:22:17;;;;;;;18.73;11.17;;;9.90;66.10;;;;;;4970043;28;20037;-85
2022/04/17 00:24:43;;;;;;;15.37;10.27;;;9.90;66.70;;;;;;4971173;28;20114;-85
2022/04/17 00:27:09;;;;;;;16.90;11.00;;;9.90;67.20;;;;;;4970437;28;20034;-85
2022/04/17 00:29:35;;;;;;;17.33;10.67;;;9.80;67.30;;;;;;4968454;28;20141;-85
2022/04/17 00:32:01;;;;;;;16.43;10.40;;;9.80;67.60;;;;;;4969752;28;20448;-85
2022/04/17 00:34:29;;;;;;;16.80;10.83;;;9.70;68.30;;;;;;4969885;28;20042;-84
2022/04/17 00:36:59;;;;;;;18.10;11.13;;;9.70;68.50;;;;;;4971121;28;20034;-84
2022/04/17 00:39:25;;;;;;;17.30;10.77;;;9.70;69.10;;;;;;4970745;28;20065;-84
2022/04/17 00:41:53;;;;;;;20.00;10.50;;;9.60;69.30;;;;;;4970755;28;20170;-84
2022/04/17 00:44:20;;;;;;;14.80;9.70;;;9.60;69.70;;;;;;4969782;28;20027;-84
2022/04/17 00:46:46;;;;;;;15.87;10.03;;;9.50;70.50;;;;;;4969764;28;20565;-84
2022/04/17 00:49:11;;;;;;;17.90;11.17;;;9.50;71.00;;;;;;4969730;28;20072;-84
2022/04/17 00:51:38;;;;;;;18.17;10.40;;;9.30;71.10;;;;;;4969249;28;20490;-84
2022/04/17 00:54:06;;;;;;;18.03;10.47;;;9.30;72.20;;;;;;4970918;28;20479;-84
2022/04/17 00:56:32;;;;;;;15.47;9.53;;;9.30;72.60;;;;;;4970541;28;20112;-84
2022/04/17 00:58:59;;;;;;;17.03;10.63;;;9.20;72.80;;;;;;4970915;28;20039;-84
2022/04/17 01:01:27;;;;;;;16.07;9.70;;;9.30;72.70;;;;;;4968125;28;20043;-84
2022/04/17 01:03:53;;;;;;;16.57;9.80;;;9.20;73.10;;;;;;4970579;28;20094;-85
2022/04/17 01:06:19;;;;;;;17.43;9.80;;;9.10;73.60;;;;;;4970479;28;20022;-84
2022/04/17 01:08:45;;;;;;;16.30;10.27;;;9.10;74.10;;;;;;4953062;28;20399;-84
2022/04/17 01:11:11;;;;;;;17.50;9.87;;;9.10;74.10;;;;;;4970162;28;20065;-84
2022/04/17 01:13:39;;;;;;;17.47;10.10;;;9.00;73.70;;;;;;4969122;28;20671;-84
2022/04/17 01:16:05;;;;;;;17.03;9.90;;;8.90;73.70;;;;;;4969281;28;20038;-84
2022/04/17 01:19:00;;;;;;;15.20;9.97;;;8.90;73.80;;;;;;4968856;28;20053;-84
2022/04/17 01:21:30;;;;;;;15.03;9.93;;;8.80;74.30;;;;;;4952812;28;20035;-84
2022/04/17 01:26:57;;;;;;;17.10;10.10;;;8.80;74.70;;;;;;4970149;28;20031;-84
2022/04/17 01:29:29;;;;;;;18.60;11.27;;;8.80;75.00;;;;;;4952478;28;20026;-84
2022/04/17 01:31:55;;;;;;;14.27;9.23;;;8.70;75.20;;;;;;4970270;28;20030;-84
2022/04/17 01:34:22;;;;;;;17.87;10.30;;;8.70;74.80;;;;;;4969425;28;20027;-84
2022/04/17 01:36:49;;;;;;;17.17;9.90;;;8.60;75.20;;;;;;4969081;28;20321;-84
2022/04/17 01:39:16;;;;;;;18.23;9.97;;;8.60;75.10;;;;;;4974421;28;20050;-84
2022/04/17 01:41:42;;;;;;;16.47;10.13;;;8.60;74.70;;;;;;4974188;28;20332;-84
2022/04/17 01:44:08;;;;;;;15.50;9.40;;;8.50;74.60;;;;;;4974266;28;20030;-84
2022/04/17 01:46:34;;;;;;;16.53;10.03;;;8.40;74.60;;;;;;4973022;28;20039;-84
2022/04/17 01:49:00;;;;;;;17.97;10.00;;;8.50;74.10;;;;;;4974784;28;20031;-84
2022/04/17 01:51:26;;;;;;;14.80;9.00;;;8.40;73.50;;;;;;4972690;28;20031;-85
2022/04/17 01:53:52;;;;;;;15.60;9.27;;;8.40;73.80;;;;;;4974527;28;20101;-84
2022/04/17 01:56:18;;;;;;;15.33;8.93;;;8.30;73.40;;;;;;4973934;28;20391;-85
2022/04/17 01:58:44;;;;;;;14.33;8.87;;;8.20;73.50;;;;;;4974039;28;20122;-85
2022/04/17 02:01:10;;;;;;;14.93;8.53;;;8.20;73.80;;;;;;4973021;28;20169;-85
2022/04/17 02:03:37;;;;;;;13.93;8.40;;;8.30;74.00;;;;;;4973925;28;20034;-85
2022/04/17 02:06:02;;;;;;;14.00;8.40;;;8.30;73.90;;;;;;4972231;28;20114;-85
2022/04/17 02:08:28;;;;;;;13.47;8.47;;;8.30;73.80;;;;;;4973942;28;20031;-85
2022/04/17 02:10:55;;;;;;;13.93;8.50;;;8.10;74.20;;;;;;4973564;28;20058;-85
2022/04/17 02:13:25;;;;;;;16.57;8.60;;;8.00;74.50;;;;;;4972417;28;20042;-84
2022/04/17 02:15:53;;;;;;;12.20;7.97;;;8.10;74.90;;;;;;4971256;28;20031;-84
2022/04/17 02:18:25;;;;;;;13.85;8.27;;;8.00;75.10;;;;;;4974005;28;20027;-84
2022/04/17 02:20:52;;;;;;;12.60;7.77;;;7.90;75.50;;;;;;4973610;28;20105;-84
2022/04/17 02:23:18;;;;;;;12.90;7.27;;;7.90;75.60;;;;;;4972545;28;20046;-84
2022/04/17 02:25:44;;;;;;;14.53;8.60;;;7.90;75.50;;;;;;4973461;28;20031;-85
2022/04/17 02:28:09;;;;;;;13.53;7.23;;;7.90;75.70;;;;;;4973427;28;20035;-85
2022/04/17 02:30:36;;;;;;;16.00;9.80;;;8.00;75.50;;;;;;4970773;28;20185;-84
2022/04/17 02:33:02;;;;;;;12.87;7.67;;;7.90;75.50;;;;;;4972308;28;20085;-85
2022/04/17 02:35:29;;;;;;;12.83;7.20;;;7.80;75.60;;;;;;4955763;28;20101;-84
2022/04/17 02:37:55;;;;;;;12.83;7.50;;;7.80;75.60;;;;;;4973548;28;20644;-85
2022/04/17 02:40:21;;;;;;;11.20;6.50;;;7.80;75.50;;;;;;4973168;28;20035;-85
2022/04/17 02:42:48;;;;;;;11.63;6.57;;;7.90;75.80;;;;;;4973304;28;20467;-84
2022/04/17 02:45:13;;;;;;;13.17;7.10;;;7.80;75.70;;;;;;4972353;28;20031;-85
2022/04/17 02:47:42;;;;;;;11.77;6.37;;;7.90;75.80;;;;;;4973419;28;20518;-85
2022/04/17 02:50:16;;;;;;;11.95;6.68;;;8.00;75.80;;;;;;4972245;28;20050;-84
2022/04/17 02:52:42;;;;;;;12.33;6.57;;;7.90;75.70;;;;;;4973307;28;20507;-84
2022/04/17 02:55:08;;;;;;;10.20;6.43;;;8.00;75.80;;;;;;4973124;28;20475;-84
2022/04/17 02:57:35;;;;;;;10.47;6.03;;;7.90;75.70;;;;;;4971852;28;20130;-84
2022/04/17 03:00:02;;;;;;;11.13;6.10;;;7.90;75.70;;;;;;4971906;28;20038;-84
2022/04/17 03:07:58;;;;;;;10.83;5.33;;;7.80;76.10;;;;;;4973107;28;20042;-84
2022/04/17 03:10:24;;;;;;;8.77;5.03;;;7.80;75.90;;;;;;4972881;28;20043;-84
2022/04/17 03:12:49;;;;;;;7.90;4.47;;;7.70;75.80;;;;;;4972969;28;20038;-84
2022/04/17 03:15:15;;;;;;;8.90;5.10;;;7.70;75.90;;;;;;4971675;28;20074;-84
2022/04/17 03:17:41;;;;;;;7.50;4.63;;;7.60;75.40;;;;;;4971363;28;20491;-84
2022/04/17 03:20:07;;;;;;;7.60;4.80;;;7.60;75.70;;;;;;4972589;28;20394;-84
2022/04/17 03:22:34;;;;;;;8.60;4.43;;;7.50;75.80;;;;;;4973228;28;20409;-85
2022/04/17 03:25:01;;;;;;;8.70;4.60;;;7.60;76.10;;;;;;4971374;28;20045;-84
2022/04/17 03:27:30;;;;;;;9.60;5.30;;;7.50;76.40;;;;;;4972544;28;20030;-85
2022/04/17 03:29:56;;;;;;;7.70;4.32;;;7.50;76.70;;;;;;4969830;28;20486;-84
2022/04/17 03:32:22;;;;;;;9.37;4.40;;;7.50;76.70;;;;;;4970884;28;20069;-84
2022/04/17 03:34:48;;;;;;;6.33;4.07;;;7.40;76.60;;;;;;4970767;28;20027;-84
2022/04/17 03:37:17;;;;;;;8.17;4.60;;;7.40;76.70;;;;;;4972464;28;20042;-84
2022/04/17 03:39:44;;;;;;;6.97;3.88;;;7.40;77.00;;;;;;4971999;28;20030;-83
2022/04/17 03:42:10;;;;;;;7.67;4.03;;;7.40;77.10;;;;;;4972056;28;20487;-84
2022/04/17 03:44:36;;;;;;;6.57;3.93;;;7.40;77.30;;;;;;4971393;28;20486;-82
2022/04/17 03:47:02;;;;;;;5.17;3.50;;;7.50;77.70;;;;;;4971767;28;20193;-84
2022/04/17 03:49:31;;;;;;;7.27;3.80;;;7.50;77.80;;;;;;4971926;28;20027;-84
2022/04/17 03:51:57;;;;;;;8.93;4.05;;;7.50;77.70;;;;;;4954528;28;20484;-84
2022/04/17 03:54:23;;;;;;;7.93;4.30;;;7.50;77.70;;;;;;4971832;28;20560;-83
2022/04/17 03:56:49;;;;;;;9.90;4.90;;;7.40;77.90;;;;;;4971921;28;20027;-84
2022/04/17 03:59:15;;;;;;;5.83;3.53;;;7.30;78.30;;;;;;4970804;28;20031;-83
2022/04/17 04:01:41;;;;;;;7.30;3.40;;;7.20;78.30;;;;;;4970709;28;20383;-84
2022/04/17 04:04:07;;;;;;;9.87;3.93;;;7.20;78.50;;;;;;4970760;28;20217;-84
2022/04/17 04:06:33;;;;;;;7.77;4.03;;;7.30;78.60;;;;;;4971421;28;20026;-84
2022/04/17 04:08:59;;;;;;;8.53;4.30;;;7.20;78.60;;;;;;4954556;28;20121;-84
2022/04/17 04:11:26;;;;;;;7.60;3.47;;;7.20;78.40;;;;;;4953825;28;20126;-83
2022/04/17 04:13:53;;;;;;;5.27;3.93;;;7.10;78.30;;;;;;4971775;28;20145;-83
2022/04/17 04:16:19;;;;;;;5.87;3.30;;;7.10;79.00;;;;;;4952965;28;20112;-83
2022/04/17 04:18:45;;;;;;;7.43;3.70;;;7.20;78.90;;;;;;4971656;28;20081;-83
2022/04/17 04:21:10;;;;;;;8.10;3.17;;;7.30;78.20;;;;;;4970011;28;20078;-83
2022/04/17 04:23:36;;;;;;;5.70;3.13;;;7.40;78.00;;;;;;4971782;28;20676;-83
2022/04/17 04:26:03;;;;;;;6.00;3.57;;;7.40;78.10;;;;;;4971445;28;20135;-83
2022/04/17 04:28:38;;;;;;;5.93;3.30;;;7.40;78.20;;;;;;4970091;28;20027;-83
2022/04/17 04:31:09;;;;;;;5.37;3.23;;;7.50;78.40;;;;;;4968950;28;20038;-83
2022/04/17 04:33:36;;;;;;;5.87;3.30;;;7.40;78.20;;;;;;4971381;28;20058;-83
2022/04/17 04:36:04;;;;;;;6.90;3.40;;;7.40;78.00;;;;;;4971277;28;20494;-83
2022/04/17 04:38:31;;;;;;;5.87;3.10;;;7.50;78.20;;;;;;4971249;28;20031;-84
2022/04/17 04:40:57;;;;;;;6.43;3.17;;;7.50;78.30;;;;;;4970964;28;20059;-84
2022/04/17 04:43:23;;;;;;;7.27;3.30;;;7.50;78.70;;;;;;4970950;28;20062;-84
2022/04/17 04:46:07;;;;;;;6.93;3.13;;;7.40;78.60;;;;;;4969902;28;20026;-83
2022/04/17 04:51:23;;;;;;;6.03;2.93;;;7.50;79.10;;;;;;4970770;28;20061;-84
2022/04/17 04:53:49;;;;;;;6.27;3.33;;;7.40;79.40;;;;;;4971198;28;20043;-83
2022/04/17 04:56:16;;;;;;;6.67;3.43;;;7.50;79.60;;;;;;4953565;28;20070;-83
2022/04/17 04:58:43;;;;;;;7.57;3.10;;;7.50;79.50;;;;;;4970978;28;20035;-83
2022/04/17 05:01:08;;;;;;;7.03;3.40;;;7.50;79.80;;;;;;4968737;28;20756;-84
2022/04/17 05:03:35;;;;;;;5.17;3.17;;;7.50;79.70;;;;;;4970962;28;20145;-83
2022/04/17 05:06:01;;;;;;;6.83;3.47;;;7.40;80.20;;;;;;4970783;28;20476;-83
2022/04/17 05:08:27;;;;;;;5.93;3.67;;;7.30;80.60;;;;;;4970942;28;20442;-83
2022/04/17 05:10:53;;;;;;;6.37;3.20;;;7.40;80.80;;;;;;4971085;28;20030;-83
2022/04/17 05:13:19;;;;;;;5.70;3.50;;;7.40;80.90;;;;;;4970645;28;20431;-83
2022/04/17 05:15:45;;;;;;;7.33;3.17;;;7.60;80.70;;;;;;4969663;28;20168;-83
2022/04/17 05:18:10;;;;;;;7.83;3.10;;;7.60;80.40;;;;;;4953492;28;20101;-83
2022/04/17 05:20:36;;;;;;;5.97;2.70;;;7.60;80.20;;;;;;4970706;28;20479;-83
2022/04/17 05:23:19;;;;;;;5.27;2.80;;;7.60;80.00;;;;;;4970954;28;20035;-83
2022/04/17 05:25:51;;;;;;;5.70;3.10;;;7.70;79.40;;;;;;4969359;28;20045;-83
2022/04/17 05:28:17;;;;;;;6.20;3.10;;;7.70;78.90;;;;;;4969624;28;20029;-83
2022/04/17 05:30:44;;;;;;;4.80;2.40;;;7.80;79.20;;;;;;4968016;28;20486;-83
2022/04/17 05:33:11;;;;;;;5.00;2.30;;;8.00;78.70;;;;;;4970671;28;20027;-83
2022/04/17 05:35:37;;;;;;;4.57;2.50;;;8.10;77.90;;;;;;4970346;28;20043;-83
2022/04/17 05:38:04;;;;;;;5.80;2.30;;;8.20;77.60;;;;;;4953194;28;20447;-83
2022/04/17 05:40:52;;;;;;;4.50;2.37;;;8.20;77.60;;;;;;4968984;28;20149;-83
2022/04/17 05:43:19;;;;;;;3.17;2.10;;;8.30;77.10;;;;;;4970822;28;20031;-84
2022/04/17 05:45:46;;;;;;;4.70;2.30;;;8.40;76.80;;;;;;4969337;28;20223;-83
2022/04/17 05:48:13;;;;;;;4.47;2.10;;;8.50;77.00;;;;;;4969132;28;20106;-84
2022/04/17 05:50:39;;;;;;;5.50;2.00;;;8.50;76.80;;;;;;4968488;28;20031;-83
2022/04/17 05:53:05;;;;;;;3.27;2.10;;;8.60;76.60;;;;;;4970339;28;20035;-84
2022/04/17 05:55:31;;;;;;;3.50;2.00;;;8.70;76.90;;;;;;4968716;28;20345;-83
2022/04/17 05:57:57;;;;;;;5.33;1.90;;;8.80;76.40;;;;;;4970216;28;20104;-81
2022/04/17 06:00:23;;;;;;;4.77;2.00;;;8.70;75.20;;;;;;4969782;28;20147;-86
2022/04/17 06:02:49;;;;;;;4.33;1.93;;;8.90;74.70;;;;;;4968674;28;20035;-84
2022/04/17 06:05:17;;;;;;;4.20;1.90;;;9.00;74.80;;;;;;4970057;28;20555;-85
2022/04/17 06:07:43;;;;;;;3.47;2.00;;;9.00;74.70;;;;;;4953097;28;20513;-85
2022/04/17 06:10:11;;;;;;;5.00;2.00;;;9.10;74.00;;;;;;4968774;28;20098;-84
2022/04/17 06:12:38;;;;;;;3.17;1.80;;;9.10;73.80;;;;;;4970165;28;20479;-85
2022/04/17 06:15:05;;;;;;;3.67;1.70;;;9.30;74.00;;;;;;4967807;28;20082;-89
2022/04/17 06:17:41;;;;;;;4.67;1.90;;;9.30;73.50;;;;;;4970359;28;20050;-85
2022/04/17 06:20:13;;;;;;;4.20;1.80;;;9.40;73.00;;;;;;4968819;28;20027;-84
2022/04/17 06:22:40;;;;;;;4.53;2.03;;;9.50;72.70;;;;;;4968881;28;20034;-84
2022/04/17 06:25:07;;;;;;;2.67;1.73;;;9.50;72.50;;;;;;4970622;28;20027;-84
2022/04/17 06:27:51;;;;;;;4.57;1.90;;;9.60;72.10;;;;;;4973457;28;20114;-84
2022/04/17 06:30:19;;;;;;;5.03;1.80;;;9.70;71.40;;;;;;4970700;28;20061;-86
2022/04/17 06:32:45;;;;;;;5.10;1.90;;;9.80;71.20;;;;;;4973285;28;20126;-84
2022/04/17 06:35:13;;;;;;;4.13;1.80;;;9.90;70.70;;;;;;4971642;28;20034;-84
2022/04/17 06:37:47;;;;;;;3.80;1.67;;;9.90;70.90;;;;;;4971594;28;20046;-85
2022/04/17 06:40:21;;;;;;;3.80;1.73;;;10.00;70.50;;;;;;4971503;28;20498;-83
2022/04/17 06:42:48;;;;;;;3.20;1.53;;;10.10;69.90;;;;;;4972851;28;20037;-85
2022/04/17 06:45:18;;;;;;;5.87;3.17;;;10.20;70.50;;;;;;4971801;28;20569;-83
2022/04/17 06:47:45;;;;;;;7.93;3.53;;;10.30;69.70;;;;;;4973033;28;20031;-81
2022/04/17 06:50:12;;;;;;;4.20;2.17;;;10.40;70.00;;;;;;4972077;28;20379;-83
2022/04/17 06:52:38;;;;;;;4.73;2.10;;;10.30;69.40;;;;;;4974629;28;20038;-85
2022/04/17 06:55:05;;;;;;;5.43;2.23;;;10.40;69.40;;;;;;4974015;28;20038;-80
2022/04/17 06:57:36;;;;;;;3.53;1.80;;;10.90;91.90;;;;;;4972341;28;20034;-80
2022/04/17 07:00:10;;;;;;;4.20;1.70;;;12.00;75.50;;;;;;4971192;28;20122;-80
2022/04/17 07:02:39;;;;;;;4.20;1.40;;;12.50;68.00;;;;;;4972355;28;20145;-80
2022/04/17 07:05:07;;;;;;;4.30;1.80;;;13.00;67.50;;;;;;4972071;28;20062;-80
2022/04/17 07:07:33;;;;;;;4.23;1.80;;;13.30;66.10;;;;;;4972347;28;20111;-80
2022/04/17 07:10:00;;;;;;;3.00;1.60;;;13.60;65.00;;;;;;4970684;28;20069;-82
2022/04/17 07:12:26;;;;;;;4.80;2.00;;;13.70;64.20;;;;;;4972410;28;20089;-81
2022/04/17 07:14:51;;;;;;;4.67;2.30;;;13.40;61.20;;;;;;4971190;28;20043;-81
2022/04/17 07:17:17;;;;;;;4.00;2.03;;;13.00;61.80;;;;;;4972173;28;20041;-81
2022/04/17 07:19:43;;;;;;;4.23;1.87;;;12.80;62.30;;;;;;4972043;28;20414;-81
2022/04/17 07:22:13;;;;;;;4.70;2.20;;;12.50;62.90;;;;;;4972412;28;20034;-81
2022/04/17 07:24:43;;;;;;;4.83;2.30;;;12.30;63.10;;;;;;4971947;28;20535;-81
2022/04/17 07:27:11;;;;;;;3.53;1.67;;;12.20;62.90;;;;;;4972244;28;20379;-81
2022/04/17 07:29:38;;;;;;;6.47;2.83;;;12.00;63.50;;;;;;4971096;28;20085;-81
2022/04/17 07:32:04;;;;;;;3.40;1.80;;;12.00;63.60;;;;;;4971705;28;20034;-81
2022/04/17 07:34:30;;;;;;;3.63;2.70;;;11.80;63.40;;;;;;4971776;28;20066;-81
2022/04/17 07:36:56;;;;;;;5.50;3.23;;;11.80;63.90;;;;;;4971592;28;20034;-81
2022/04/17 07:39:22;;;;;;;5.50;2.90;;;11.70;64.60;;;;;;4972168;28;20073;-81
2022/04/17 07:41:49;;;;;;;5.10;2.90;;;11.70;65.10;;;;;;4971597;28;20035;-80
2022/04/17 07:44:14;;;;;;;4.37;2.00;;;11.70;66.20;;;;;;4970543;28;20149;-82
2022/04/17 07:46:42;;;;;;;4.80;2.37;;;11.70;65.00;;;;;;4969134;28;20027;-83
2022/04/17 07:49:08;;;;;;;5.37;2.70;;;11.70;64.60;;;;;;4954188;28;20164;-81
2022/04/17 07:51:34;;;;;;;4.30;2.13;;;11.80;64.70;;;;;;4971204;28;20121;-81
2022/04/17 07:54:01;;;;;;;5.77;2.70;;;11.80;64.20;;;;;;4971639;28;20475;-81
2022/04/17 07:56:27;;;;;;;4.53;2.03;;;11.80;64.40;;;;;;4971283;28;20112;-81
2022/04/17 07:58:52;;;;;;;4.20;1.67;;;11.80;64.40;;;;;;4970049;28;20467;-81
2022/04/17 08:01:21;;;;;;;5.97;2.40;;;11.80;64.20;;;;;;4970591;28;20114;-87
2022/04/17 08:03:47;;;;;;;3.85;1.50;;;11.90;64.00;;;;;;4970626;28;20030;-87
2022/04/17 08:06:36;;;;;;;3.07;1.40;;;11.90;63.80;;;;;;4972856;28;20026;-88
2022/04/17 08:11:31;;;;;;;2.63;1.50;;;11.90;64.20;;;;;;4969837;28;20078;-70
2022/04/17 08:13:58;;;;;;;4.40;1.60;;;11.90;64.30;;;;;;4972106;28;20073;-71
2022/04/17 08:16:24;;;;;;;3.97;1.60;;;11.90;63.50;;;;;;4971106;28;20062;-70
2022/04/17 08:18:50;;;;;;;4.27;1.70;;;12.00;63.30;;;;;;4971666;28;20030;-70
2022/04/17 08:21:16;;;;;;;3.80;1.50;;;12.00;64.00;;;;;;4970336;28;20034;-68
2022/04/17 08:23:42;;;;;;;4.30;1.83;;;12.00;65.40;;;;;;4970582;28;20089;-66
2022/04/17 08:26:08;;;;;;;5.47;2.60;;;12.10;63.70;;;;;;4971472;28;20035;-68
2022/04/17 08:28:34;;;;;;;15.97;7.13;;;12.10;63.90;;;;;;4969905;28;20566;-68
2022/04/17 08:31:00;;;;;;;14.00;7.93;;;12.20;64.70;;;;;;4971366;28;20030;-69
2022/04/17 08:33:29;;;;;;;18.67;10.10;;;12.20;65.00;;;;;;4971888;28;20030;-69
2022/04/17 08:35:55;;;;;;;8.13;4.00;;;12.20;65.60;;;;;;4971672;28;20555;-69
2022/04/17 08:38:22;;;;;;;6.20;2.50;;;12.20;64.50;;;;;;4971856;28;20058;-68
2022/04/17 08:40:49;;;;;;;7.10;2.20;;;12.30;65.30;;;;;;4971106;28;20066;-69
2022/04/17 08:43:18;;;;;;;4.50;2.27;;;12.20;65.00;;;;;;4971268;28;20062;-68
2022/04/17 08:45:49;;;;;;;4.85;1.90;;;12.30;65.50;;;;;;4971092;28;20361;-68
2022/04/17 08:48:16;;;;;;;5.30;1.83;;;12.30;63.80;;;;;;4970549;28;20023;-68
2022/04/17 08:50:43;;;;;;;6.17;2.30;;;12.30;65.70;;;;;;4969862;28;20404;-67
2022/04/17 08:53:13;;;;;;;4.20;1.80;;;12.40;65.70;;;;;;4970953;28;20085;-69
2022/04/17 08:55:40;;;;;;;6.37;1.60;;;12.40;65.80;;;;;;4970551;28;20627;-68
2022/04/17 08:58:06;;;;;;;3.80;1.57;;;12.40;65.30;;;;;;4970488;28;20049;-68
2022/04/17 09:00:32;;;;;;;2.47;1.40;;;12.50;66.00;;;;;;4969974;28;20550;-68
2022/04/17 09:02:58;;;;;;;3.77;1.60;;;12.50;65.00;;;;;;4970497;28;20043;-68
2022/04/17 09:05:23;;;;;;;5.57;2.23;;;12.50;63.70;;;;;;4970857;28;20071;-68
2022/04/17 09:07:53;;;;;;;3.63;1.57;;;12.50;62.90;;;;;;4970765;28;20388;-67
2022/04/17 09:10:30;;;;;;;4.80;1.63;;;12.60;61.90;;;;;;4970492;28;20042;-68
2022/04/17 09:13:02;;;;;;;4.13;1.73;;;12.60;62.00;;;;;;4969482;28;20057;-68
2022/04/17 09:15:35;;;;;;;4.37;2.17;;;12.70;61.60;;;;;;4969868;28;20126;-69
2022/04/17 09:18:06;;;;;;;4.23;1.50;;;12.70;62.10;;;;;;4970769;28;20042;-69
2022/04/17 09:20:32;;;;;;;3.30;1.60;;;12.80;62.00;;;;;;4969357;28;20038;-69
2022/04/17 09:23:00;;;;;;;3.43;1.30;;;12.80;62.10;;;;;;4970708;28;20369;-69
2022/04/17 09:25:26;;;;;;;3.57;1.67;;;12.80;62.10;;;;;;4970598;28;20031;-69
2022/04/17 09:28:01;;;;;;;3.43;1.60;;;12.80;62.40;;;;;;4970410;28;20031;-68
2022/04/17 09:30:39;;;;;;;4.30;2.00;;;12.80;62.00;;;;;;4970005;28;20041;-68
2022/04/17 09:33:09;;;;;;;3.05;1.60;;;12.70;62.50;;;;;;4970634;28;20030;-69
2022/04/17 09:35:35;;;;;;;3.90;2.13;;;12.80;62.20;;;;;;4970357;28;20027;-68
2022/04/17 09:38:06;;;;;;;6.23;3.37;;;12.80;61.60;;;;;;4970383;28;20041;-69
2022/04/17 09:40:33;;;;;;;2.93;1.67;;;12.90;61.20;;;;;;4970656;28;20118;-69
2022/04/17 09:43:18;;;;;;;12.17;5.70;;;12.90;60.60;;;;;;4970986;28;20050;-68
2022/04/17 09:45:58;;;;;;;4.10;2.10;;;13.00;59.80;;;;;;4969824;28;20029;-69
2022/04/17 09:48:24;;;;;;;3.43;1.90;;;13.10;60.30;;;;;;4970327;28;20031;-69
2022/04/17 09:50:50;;;;;;;3.73;1.40;;;13.10;60.40;;;;;;4968841;28;20023;-69
2022/04/17 09:53:33;;;;;;;5.87;1.70;;;13.10;59.60;;;;;;4970150;28;20293;-68
2022/04/17 09:56:12;;;;;;;6.63;3.90;;;13.10;60.00;;;;;;4970647;28;20038;-67
2022/04/17 09:58:45;;;;;;;9.95;5.30;;;13.20;60.70;;;;;;4971855;28;20118;-67
2022/04/17 10:01:16;;;;;;;12.77;7.80;;;13.10;61.30;;;;;;4972743;28;20113;-69
2022/04/17 10:03:42;;;;;;;12.07;6.30;;;13.10;61.90;;;;;;4974447;28;20468;-67
2022/04/17 10:06:10;;;;;;;7.33;4.57;;;13.10;61.60;;;;;;4974499;28;20109;-67
2022/04/17 10:08:39;;;;;;;6.63;3.47;;;13.10;61.70;;;;;;4974271;28;20558;-67
2022/04/17 10:11:06;;;;;;;3.28;1.50;;;13.10;61.50;;;;;;4973811;28;20063;-67
2022/04/17 10:13:35;;;;;;;3.93;1.57;;;13.20;60.70;;;;;;4974126;28;20547;-67
2022/04/17 10:16:03;;;;;;;2.80;1.35;;;13.20;60.50;;;;;;4973380;28;20042;-67
2022/04/17 10:18:35;;;;;;;4.22;1.40;;;13.20;61.00;;;;;;4972386;28;20048;-69
2022/04/17 10:21:06;;;;;;;2.57;1.20;;;13.20;61.30;;;;;;4974290;28;20488;-70
2022/04/17 10:23:35;;;;;;;2.70;1.30;;;13.30;60.80;;;;;;4974139;28;20409;-70
2022/04/17 10:26:04;;;;;;;4.70;2.60;;;13.30;60.10;;;;;;4988676;28;20126;-70
2022/04/17 10:28:39;;;;;;;3.85;2.05;;;13.30;60.50;;;;;;4972656;28;20041;-67
2022/04/17 10:31:17;;;;;;;6.05;2.97;;;13.50;58.70;;;;;;4971743;28;20070;-68
2022/04/17 10:33:54;;;;;;;3.78;1.88;;;13.50;58.50;;;;;;4973638;28;20114;-70
2022/04/17 10:36:30;;;;;;;3.45;1.60;;;13.60;58.10;;;;;;4973157;28;20023;-69
2022/04/17 10:39:18;;;;;;;3.50;2.07;;;13.70;57.90;;;;;;4973480;28;20562;-69
2022/04/17 10:41:44;;;;;;;4.45;1.60;;;13.80;57.40;;;;;;4973503;28;20081;-67
2022/04/17 10:44:11;;;;;;;7.32;2.05;;;13.90;57.50;;;;;;4973382;28;20437;-67
2022/04/17 10:46:51;;;;;;;7.82;3.00;;;14.00;57.30;;;;;;4972779;28;20037;-68
2022/04/17 10:49:22;;;;;;;6.72;2.42;;;14.00;58.30;;;;;;4973350;28;20063;-69
2022/04/17 10:51:57;;;;;;;4.53;1.80;;;14.00;57.50;;;;;;4972089;28;20031;-69
2022/04/17 10:54:24;;;;;;;3.47;1.80;;;13.90;57.70;;;;;;4956195;28;20381;-67
2022/04/17 10:56:56;;;;;;;3.70;1.73;;;13.90;58.20;;;;;;4971865;28;20034;-68
2022/04/17 10:59:28;;;;;;;3.97;1.92;;;13.90;57.70;;;;;;4973491;28;20042;-69
2022/04/17 11:01:59;;;;;;;4.30;1.50;;;14.00;56.50;;;;;;4973442;28;20592;-70
2022/04/17 11:04:37;;;;;;;5.43;2.42;;;14.00;57.00;;;;;;4971723;28;20043;-69
2022/04/17 11:07:06;;;;;;;5.95;2.70;;;14.00;56.80;;;;;;4955713;28;20027;-70
2022/04/17 11:09:33;;;;;;;5.88;1.75;;;13.90;57.30;;;;;;4972477;28;20051;-69
2022/04/17 11:12:27;;;;;;;3.17;1.70;;;13.90;57.70;;;;;;4971175;28;20069;-70
2022/04/17 11:14:56;;;;;;;3.22;2.00;;;13.90;57.90;;;;;;4970916;28;20030;-70
2022/04/17 11:17:24;;;;;;;4.13;1.80;;;14.00;57.70;;;;;;4972909;28;20295;-69
2022/04/17 11:19:55;;;;;;;3.20;1.75;;;14.00;57.80;;;;;;4972568;28;20038;-70
2022/04/17 11:22:32;;;;;;;3.35;1.45;;;14.00;57.60;;;;;;4973267;28;20439;-69
2022/04/17 11:24:58;;;;;;;6.70;2.97;;;14.00;58.10;;;;;;4972732;28;20069;-70
2022/04/17 11:27:46;;;;;;;6.65;2.88;;;14.00;57.70;;;;;;4972271;28;20066;-70
2022/04/17 11:30:15;;;;;;;5.93;3.15;;;14.00;57.90;;;;;;4971081;28;20437;-68
2022/04/17 11:32:41;;;;;;;5.93;1.88;;;14.00;57.70;;;;;;4972717;28;20208;-68
2022/04/17 11:35:11;;;;;;;2.90;1.60;;;14.10;57.30;;;;;;4972349;28;20037;-71
2022/04/17 11:37:38;;;;;;;4.03;2.03;;;14.20;57.60;;;;;;4970747;28;20123;-68
2022/04/17 11:40:17;;;;;;;3.72;1.70;;;14.20;57.90;;;;;;4972544;28;20030;-68
2022/04/17 11:42:51;;;;;;;3.25;1.52;;;14.20;58.40;;;;;;4972683;28;20046;-69
2022/04/17 11:45:21;;;;;;;7.57;3.20;;;14.20;58.50;;;;;;4972053;28;20041;-70
2022/04/17 11:47:48;;;;;;;4.43;2.10;;;14.20;57.30;;;;;;4971971;28;20035;-69
2022/04/17 11:50:28;;;;;;;5.32;2.35;;;14.30;57.40;;;;;;4954699;28;20081;-69
2022/04/17 11:52:57;;;;;;;5.47;2.88;;;14.30;57.60;;;;;;4972133;28;20480;-70
2022/04/17 11:55:28;;;;;;;5.65;2.25;;;14.30;58.70;;;;;;4972313;28;20345;-68
2022/04/17 11:57:55;;;;;;;3.85;1.73;;;14.20;59.10;;;;;;4970663;28;20469;-71
2022/04/17 12:00:22;;;;;;;3.40;1.40;;;14.20;58.70;;;;;;4971540;28;20034;-67
2022/04/17 12:02:55;;;;;;;3.38;1.45;;;14.20;58.70;;;;;;4971930;28;20144;-68
2022/04/17 12:05:21;;;;;;;3.22;1.30;;;14.20;58.80;;;;;;4971891;28;20030;-68
2022/04/17 12:07:56;;;;;;;3.88;1.90;;;14.30;57.00;;;;;;4970209;28;20522;-69
2022/04/17 12:10:22;;;;;;;2.92;1.65;;;14.30;57.20;;;;;;4971345;28;20042;-68
2022/04/17 12:12:48;;;;;;;2.42;1.20;;;14.40;57.80;;;;;;4971608;28;20035;-69
2022/04/17 12:15:18;;;;;;;2.80;1.40;;;14.40;58.50;;;;;;4969445;28;20162;-69
2022/04/17 12:17:44;;;;;;;3.35;1.52;;;14.40;58.60;;;;;;4971092;28;20436;-68
2022/04/17 12:20:14;;;;;;;3.00;1.35;;;14.40;58.30;;;;;;4971549;28;20034;-69
2022/04/17 12:22:41;;;;;;;2.28;1.15;;;14.40;58.00;;;;;;4970339;28;20035;-69
2022/04/17 12:25:26;;;;;;;3.92;1.30;;;14.50;57.30;;;;;;4971245;28;20058;-69
2022/04/17 12:27:54;;;;;;;2.55;1.20;;;14.50;56.90;;;;;;4970912;28;20031;-68
2022/04/17 12:30:20;;;;;;;2.08;1.08;;;14.60;56.70;;;;;;4970803;28;20046;-68
2022/04/17 12:32:47;;;;;;;2.05;1.05;;;14.60;56.60;;;;;;4970963;28;20034;-68
2022/04/17 12:35:25;;;;;;;2.45;1.17;;;14.50;57.00;;;;;;4969884;28;20463;-68
2022/04/17 12:38:04;;;;;;;3.13;1.70;;;14.60;57.40;;;;;;4970675;28;20050;-68
2022/04/17 12:40:31;;;;;;;3.17;1.23;;;14.70;57.30;;;;;;4970990;28;20034;-69
2022/04/17 12:43:30;;;;;;;2.38;1.20;;;14.80;56.70;;;;;;4970987;28;20062;-68
2022/04/17 12:46:04;;;;;;;2.83;1.30;;;14.80;57.10;;;;;;4952283;28;20050;-67
2022/04/17 12:48:35;;;;;;;2.50;1.60;;;14.90;57.30;;;;;;4970878;28;20033;-67
2022/04/17 12:51:04;;;;;;;4.50;1.88;;;14.90;56.70;;;;;;4971130;28;20118;-70
2022/04/17 12:53:38;;;;;;;3.15;1.60;;;14.80;57.00;;;;;;4970983;28;20030;-67
2022/04/17 12:56:06;;;;;;;2.63;1.15;;;14.80;57.00;;;;;;4970665;28;20522;-67
2022/04/17 12:58:52;;;;;;;1.85;1.10;;;14.90;55.90;;;;;;4970616;28;20062;-69
2022/04/17 13:01:25;;;;;;;3.47;1.50;;;14.90;56.30;;;;;;4968979;28;20034;-68
2022/04/17 13:04:05;;;;;;;2.10;1.30;;;15.00;56.40;;;;;;4971239;28;20050;-70
2022/04/17 13:06:31;;;;;;;3.75;1.30;;;15.00;56.50;;;;;;4970577;28;20058;-67
2022/04/17 13:09:04;;;;;;;2.92;1.20;;;15.00;56.40;;;;;;4971210;28;20077;-67